Time;durP1;ratioP1;P1;durP2;ratioP2;P2;SDS_P1;SDS_P2;PMS_P1;PMS_P2;Temp;Humidity;BMP_temperature;BMP_pressure;BME280_temperature;BME280_humidity;BME280_pressure;Samples;Min_cycle;Max_cycle;Signal;HPM_P1;HPM_P2
2022/08/02 00:01:04;;;;;;;8.73;3.40;;;14.40;98.60;;;;;;5032672;28;20937;-63
2022/08/02 00:03:32;;;;;;;5.90;2.80;;;14.40;98.60;;;;;;5032724;28;20441;-61
2022/08/02 00:05:59;;;;;;;7.07;2.90;;;14.40;98.70;;;;;;5032972;28;20540;-61
2022/08/02 00:08:26;;;;;;;3.23;2.47;;;14.40;98.90;;;;;;5032458;28;20488;-62
2022/08/02 00:10:55;;;;;;;14.37;3.70;;;14.40;98.90;;;;;;5032888;28;20933;-61
2022/08/02 00:13:22;;;;;;;5.20;3.23;;;14.30;98.90;;;;;;5032374;28;20968;-61
2022/08/02 00:15:49;;;;;;;5.60;3.40;;;14.30;99.00;;;;;;5032571;28;20473;-61
2022/08/02 00:18:16;;;;;;;3.67;3.10;;;14.30;99.30;;;;;;5032797;28;20446;-61
2022/08/02 00:20:43;;;;;;;6.43;3.03;;;14.20;99.30;;;;;;5032631;28;21008;-61
2022/08/02 00:23:11;;;;;;;8.10;3.60;;;14.20;99.40;;;;;;5032510;28;20539;-63
2022/08/02 00:25:38;;;;;;;3.77;2.90;;;14.20;99.50;;;;;;5035065;28;20575;-61
2022/08/02 00:28:07;;;;;;;11.10;4.20;;;14.10;99.70;;;;;;5036599;28;20535;-63
2022/08/02 00:30:34;;;;;;;4.43;3.40;;;14.00;99.80;;;;;;5016982;28;20553;-63
2022/08/02 00:33:01;;;;;;;4.53;3.13;;;14.00;99.90;;;;;;5036914;28;20571;-61
2022/08/02 00:35:29;;;;;;;6.80;3.13;;;14.00;99.90;;;;;;5036746;28;20500;-61
2022/08/02 00:37:56;;;;;;;8.10;3.27;;;14.00;99.90;;;;;;5037109;28;20476;-61
2022/08/02 00:40:24;;;;;;;4.20;3.27;;;14.00;99.90;;;;;;5036357;28;20547;-61
2022/08/02 00:43:03;;;;;;;8.77;3.40;;;13.90;99.90;;;;;;5036808;28;20448;-62
2022/08/02 00:45:31;;;;;;;6.37;4.00;;;13.90;99.90;;;;;;5036452;28;20802;-62
2022/08/02 00:47:59;;;;;;;8.83;3.43;;;13.90;99.90;;;;;;5036449;28;20531;-61
2022/08/02 00:50:26;;;;;;;5.50;3.63;;;13.80;99.90;;;;;;5036100;28;20472;-62
2022/08/02 00:52:54;;;;;;;5.60;3.50;;;13.90;99.90;;;;;;5039397;28;20536;-60
2022/08/02 00:55:22;;;;;;;8.03;3.10;;;13.80;99.90;;;;;;5036299;28;20531;-61
2022/08/02 00:57:49;;;;;;;7.83;3.50;;;13.80;99.90;;;;;;5036469;28;20455;-60
2022/08/02 01:00:17;;;;;;;6.97;3.30;;;13.80;99.90;;;;;;5036032;28;20473;-62
2022/08/02 01:02:45;;;;;;;6.57;4.17;;;13.80;99.90;;;;;;5036270;28;20445;-60
2022/08/02 01:05:13;;;;;;;6.97;4.13;;;13.80;99.90;;;;;;5036017;28;20536;-60
2022/08/02 01:07:40;;;;;;;8.37;4.10;;;13.80;99.90;;;;;;5036341;28;20539;-61
2022/08/02 01:10:08;;;;;;;8.93;3.67;;;13.70;99.90;;;;;;5036071;28;20829;-59
2022/08/02 01:12:36;;;;;;;6.90;3.80;;;13.70;99.90;;;;;;5036325;28;20544;-61
2022/08/02 01:15:07;;;;;;;8.43;3.67;;;13.80;99.90;;;;;;5036328;28;20612;-64
2022/08/02 01:17:43;;;;;;;6.50;4.10;;;13.80;99.90;;;;;;5034364;28;20439;-61
2022/08/02 01:20:25;;;;;;;7.80;3.57;;;13.80;99.90;;;;;;5035846;28;20552;-60
2022/08/02 01:23:10;;;;;;;5.03;3.97;;;13.80;99.90;;;;;;5035904;28;20437;-60
2022/08/02 01:25:57;;;;;;;5.30;4.03;;;13.80;99.90;;;;;;5020454;28;20525;-60
2022/08/02 01:28:36;;;;;;;7.20;2.90;;;13.80;99.90;;;;;;5035325;28;20453;-61
2022/08/02 01:31:10;;;;;;;7.73;3.60;;;13.70;99.90;;;;;;5035051;28;20448;-61
2022/08/02 01:33:42;;;;;;;7.30;3.60;;;13.70;99.90;;;;;;5035844;28;20546;-61
2022/08/02 01:36:13;;;;;;;5.60;3.20;;;13.70;99.90;;;;;;5035430;28;20465;-60
2022/08/02 01:38:43;;;;;;;9.40;3.67;;;13.70;99.90;;;;;;5034943;28;20519;-61
2022/08/02 01:41:15;;;;;;;5.77;3.30;;;13.60;99.90;;;;;;5035481;28;20528;-61
2022/08/02 01:43:46;;;;;;;6.00;3.67;;;13.60;99.90;;;;;;5035160;28;20525;-60
2022/08/02 01:46:16;;;;;;;7.37;3.57;;;13.60;99.90;;;;;;5035582;28;20528;-60
2022/08/02 01:48:45;;;;;;;4.07;3.40;;;13.60;99.90;;;;;;5035356;28;20477;-60
2022/08/02 01:51:16;;;;;;;9.40;3.80;;;13.60;99.90;;;;;;5034762;28;21028;-60
2022/08/02 01:53:46;;;;;;;4.83;3.70;;;13.60;99.90;;;;;;5035395;28;20520;-60
2022/08/02 01:56:15;;;;;;;5.07;3.33;;;13.60;99.90;;;;;;5034894;28;21056;-62
2022/08/02 01:58:45;;;;;;;5.00;3.57;;;13.60;99.90;;;;;;5035702;28;20560;-60
2022/08/02 02:01:15;;;;;;;4.47;3.90;;;13.60;99.90;;;;;;5035452;28;20571;-61
2022/08/02 02:03:45;;;;;;;11.00;4.77;;;13.60;99.90;;;;;;5035079;28;20547;-61
2022/08/02 02:06:13;;;;;;;8.33;4.17;;;13.60;99.90;;;;;;5034874;28;20449;-61
2022/08/02 02:08:43;;;;;;;4.40;3.33;;;13.50;99.90;;;;;;5034431;28;20894;-62
2022/08/02 02:11:10;;;;;;;5.83;4.07;;;13.50;99.90;;;;;;5035256;28;20441;-61
2022/08/02 02:13:41;;;;;;;7.13;3.87;;;13.50;99.90;;;;;;5035078;28;20441;-61
2022/08/02 02:16:11;;;;;;;8.43;3.73;;;13.50;99.90;;;;;;5034891;28;20468;-60
2022/08/02 02:18:42;;;;;;;7.30;3.80;;;13.50;99.90;;;;;;5034593;28;20557;-61
2022/08/02 02:21:10;;;;;;;8.47;3.93;;;13.50;99.90;;;;;;5034847;28;20898;-61
2022/08/02 02:23:37;;;;;;;5.20;3.83;;;13.50;99.90;;;;;;5034447;28;20453;-61
2022/08/02 02:26:06;;;;;;;4.47;3.37;;;13.50;99.90;;;;;;5034708;28;20532;-61
2022/08/02 02:28:37;;;;;;;5.97;3.10;;;13.50;99.90;;;;;;5034159;28;20544;-61
2022/08/02 02:31:08;;;;;;;9.03;3.67;;;13.40;99.90;;;;;;5015614;28;20532;-61
2022/08/02 02:33:41;;;;;;;8.07;4.00;;;13.40;99.90;;;;;;5031002;28;20555;-61
2022/08/02 02:36:10;;;;;;;9.00;4.53;;;13.40;99.90;;;;;;5038213;28;20511;-60
2022/08/02 02:38:40;;;;;;;6.87;3.80;;;13.30;99.90;;;;;;5038665;28;20557;-60
2022/08/02 02:41:07;;;;;;;6.30;4.40;;;13.30;99.90;;;;;;5037954;28;20453;-60
2022/08/02 02:43:38;;;;;;;10.13;4.03;;;13.30;99.90;;;;;;5037396;28;20453;-60
2022/08/02 02:46:06;;;;;;;5.00;3.50;;;13.30;99.90;;;;;;5037779;28;20879;-60
2022/08/02 02:48:34;;;;;;;10.10;4.00;;;13.30;99.90;;;;;;5035516;28;20508;-61
2022/08/02 02:51:04;;;;;;;8.90;3.50;;;13.30;99.90;;;;;;5036702;28;20536;-61
2022/08/02 02:53:32;;;;;;;5.90;3.57;;;13.20;99.90;;;;;;5036898;28;20548;-60
2022/08/02 02:56:01;;;;;;;6.53;3.43;;;13.20;99.90;;;;;;5036297;28;20472;-61
2022/08/02 02:58:28;;;;;;;5.03;3.57;;;13.20;99.90;;;;;;5034057;28;20517;-62
2022/08/02 03:03:41;;;;;;;8.40;4.27;;;13.10;99.90;;;;;;5033808;28;20434;-60
2022/08/02 03:06:10;;;;;;;5.73;4.10;;;13.00;99.90;;;;;;5033859;28;20543;-61
2022/08/02 03:08:37;;;;;;;7.27;3.37;;;13.00;99.90;;;;;;5033679;28;20465;-61
2022/08/02 03:11:04;;;;;;;10.70;4.13;;;13.00;99.90;;;;;;5033719;28;20445;-61
2022/08/02 03:13:32;;;;;;;8.83;4.60;;;13.00;99.90;;;;;;5033478;28;20447;-61
2022/08/02 03:16:01;;;;;;;5.10;4.00;;;12.90;99.90;;;;;;5033370;28;20483;-61
2022/08/02 03:18:33;;;;;;;11.30;4.87;;;12.90;99.90;;;;;;5033038;28;20535;-61
2022/08/02 03:21:02;;;;;;;6.63;3.90;;;12.90;99.90;;;;;;5032889;28;20528;-62
2022/08/02 03:23:31;;;;;;;10.70;4.50;;;12.90;99.90;;;;;;5033365;28;20543;-63
2022/08/02 03:25:58;;;;;;;8.90;4.70;;;12.90;99.90;;;;;;5015113;28;20837;-61
2022/08/02 03:28:26;;;;;;;10.37;4.60;;;12.90;99.90;;;;;;5021709;28;20449;-60
2022/08/02 03:30:54;;;;;;;7.33;4.90;;;12.90;99.90;;;;;;5033043;28;20498;-61
2022/08/02 03:33:23;;;;;;;12.13;4.77;;;12.90;99.90;;;;;;5032765;28;20540;-61
2022/08/02 03:35:53;;;;;;;8.80;4.73;;;12.90;99.90;;;;;;5033017;28;20480;-61
2022/08/02 03:38:23;;;;;;;14.80;4.73;;;12.90;99.90;;;;;;5032821;28;20881;-60
2022/08/02 03:40:52;;;;;;;7.97;4.17;;;12.90;99.90;;;;;;5032974;28;20520;-60
2022/08/02 03:43:20;;;;;;;5.30;4.80;;;12.90;99.90;;;;;;5032664;28;20444;-62
2022/08/02 03:45:49;;;;;;;8.90;4.30;;;12.90;99.90;;;;;;5033013;28;20441;-61
2022/08/02 03:48:18;;;;;;;7.60;4.20;;;12.90;99.90;;;;;;5032558;28;20485;-62
2022/08/02 03:50:48;;;;;;;5.90;4.20;;;12.90;99.90;;;;;;5021140;28;20528;-61
2022/08/02 03:53:17;;;;;;;6.30;4.37;;;13.00;99.90;;;;;;5032950;28;20477;-61
2022/08/02 03:55:44;;;;;;;8.77;4.17;;;13.00;99.90;;;;;;5033147;28;20564;-61
2022/08/02 03:58:19;;;;;;;5.50;3.90;;;13.00;99.90;;;;;;5033254;28;20821;-62
2022/08/02 04:00:46;;;;;;;8.93;3.77;;;13.00;99.90;;;;;;5032209;28;20979;-61
2022/08/02 04:03:15;;;;;;;4.60;3.50;;;13.10;99.90;;;;;;5032929;28;20532;-60
2022/08/02 04:05:44;;;;;;;9.57;4.90;;;13.20;99.90;;;;;;5032925;28;20544;-61
2022/08/02 04:10:03;;;;;;;7.93;3.90;;;13.20;99.90;;;;;;5077638;27;1795817;-61
2022/08/02 04:12:32;;;;;;;6.23;4.30;;;13.30;99.90;;;;;;5117801;28;20207;-59
2022/08/02 04:15:02;;;;;;;6.67;4.30;;;13.40;99.90;;;;;;5113218;28;20450;-60
2022/08/02 04:17:32;;;;;;;8.20;3.87;;;13.40;99.90;;;;;;5112284;28;20441;-62
2022/08/02 04:20:05;;;;;;;8.20;4.33;;;13.50;99.90;;;;;;5113887;28;20978;-61
2022/08/02 04:22:39;;;;;;;5.13;3.87;;;13.60;99.90;;;;;;5111011;28;20426;-61
2022/08/02 04:25:11;;;;;;;9.80;5.63;;;13.60;99.90;;;;;;5112068;28;20516;-62
2022/08/02 04:27:40;;;;;;;6.67;4.77;;;13.70;99.90;;;;;;5110857;28;20434;-61
2022/08/02 04:30:09;;;;;;;11.80;5.23;;;13.70;99.90;;;;;;5112228;28;20821;-64
2022/08/02 04:32:38;;;;;;;10.57;4.50;;;13.80;99.90;;;;;;5110467;28;20520;-61
2022/08/02 04:35:06;;;;;;;12.33;5.50;;;13.70;99.90;;;;;;5111830;28;20550;-61
2022/08/02 04:37:34;;;;;;;9.97;4.40;;;13.70;99.90;;;;;;5111917;28;20477;-61
2022/08/02 04:40:01;;;;;;;4.60;3.90;;;13.70;99.90;;;;;;5106898;28;20548;-62
2022/08/02 04:42:30;;;;;;;7.60;4.60;;;13.70;99.90;;;;;;5110684;28;20469;-62
2022/08/02 04:44:57;;;;;;;6.07;4.00;;;13.70;99.90;;;;;;5110327;28;20446;-62
2022/08/02 04:47:25;;;;;;;6.03;4.00;;;13.70;99.90;;;;;;5109576;28;20973;-61
2022/08/02 04:49:53;;;;;;;7.80;3.53;;;13.80;99.90;;;;;;5109835;28;20489;-63
2022/08/02 04:52:20;;;;;;;6.67;4.10;;;13.80;99.90;;;;;;5110331;28;20533;-60
2022/08/02 04:54:47;;;;;;;11.20;5.37;;;13.80;99.90;;;;;;5109432;28;20529;-62
2022/08/02 05:00:10;;;;;;;6.93;4.30;;;13.80;99.90;;;;;;5084612;28;20438;-63
2022/08/02 05:02:38;;;;;;;7.10;4.20;;;13.80;99.90;;;;;;5089182;28;20519;-62
2022/08/02 05:05:06;;;;;;;6.13;4.23;;;13.80;99.90;;;;;;5106672;28;20485;-62
2022/08/02 05:07:33;;;;;;;7.37;3.90;;;13.90;99.90;;;;;;5109949;28;20437;-62
2022/08/02 05:10:00;;;;;;;9.37;4.27;;;13.90;99.90;;;;;;5108753;28;20993;-61
2022/08/02 05:12:28;;;;;;;8.10;4.67;;;14.00;99.90;;;;;;5109759;28;20945;-63
2022/08/02 05:14:55;;;;;;;6.73;4.00;;;14.20;99.90;;;;;;5108257;28;20532;-61
2022/08/02 05:17:24;;;;;;;8.13;4.00;;;14.50;99.90;;;;;;5103286;28;20474;-61
2022/08/02 05:19:51;;;;;;;4.93;4.00;;;14.90;99.90;;;;;;5092358;28;20467;-61
2022/08/02 05:22:18;;;;;;;6.30;4.20;;;15.30;99.90;;;;;;5102377;28;20466;-61
2022/08/02 05:24:46;;;;;;;7.73;3.90;;;15.70;99.90;;;;;;5102271;28;20443;-61
2022/08/02 05:27:14;;;;;;;6.30;3.63;;;16.00;99.90;;;;;;5096540;28;20438;-60
2022/08/02 05:29:44;;;;;;;4.60;3.37;;;16.30;99.90;;;;;;5095830;28;20524;-61
2022/08/02 05:32:12;;;;;;;6.53;3.93;;;16.60;99.90;;;;;;5095390;28;20443;-62
2022/08/02 05:34:41;;;;;;;7.17;3.67;;;16.60;99.90;;;;;;5095475;28;20446;-61
2022/08/02 05:37:08;;;;;;;7.37;3.80;;;16.70;99.90;;;;;;5095532;28;20438;-60
2022/08/02 05:39:35;;;;;;;5.37;3.63;;;16.90;99.80;;;;;;5095402;28;20556;-61
2022/08/02 05:42:03;;;;;;;5.90;3.77;;;17.20;99.30;;;;;;5095746;28;20449;-61
2022/08/02 05:44:30;;;;;;;5.40;3.40;;;17.30;98.30;;;;;;5095222;28;20449;-61
2022/08/02 05:46:58;;;;;;;9.10;3.40;;;17.30;97.50;;;;;;5095329;28;20500;-61
2022/08/02 05:49:25;;;;;;;8.00;3.30;;;17.20;97.40;;;;;;5095117;28;20482;-61
2022/08/02 05:52:03;;;;;;;9.00;3.63;;;17.20;97.20;;;;;;5095872;28;20446;-61
2022/08/02 05:54:38;;;;;;;8.63;4.17;;;17.10;97.00;;;;;;5095746;28;20458;-61
2022/08/02 05:57:09;;;;;;;14.10;4.03;;;17.10;97.00;;;;;;5095689;28;20433;-60
2022/08/02 05:59:58;;;;;;;8.10;4.13;;;17.00;96.70;;;;;;5095623;28;20490;-61
2022/08/02 06:02:30;;;;;;;6.93;4.03;;;17.00;97.00;;;;;;5095423;28;20446;-61
2022/08/02 06:05:04;;;;;;;9.30;4.00;;;17.00;97.00;;;;;;5095172;28;20422;-61
2022/08/02 06:07:36;;;;;;;6.73;4.00;;;17.10;97.00;;;;;;5095696;28;20430;-62
2022/08/02 06:10:05;;;;;;;5.63;3.93;;;17.30;96.80;;;;;;5083559;28;20483;-61
2022/08/02 06:12:35;;;;;;;7.00;3.47;;;17.50;96.20;;;;;;5074860;28;20451;-61
2022/08/02 06:15:04;;;;;;;6.67;3.20;;;17.60;95.60;;;;;;5086058;28;20554;-62
2022/08/02 06:17:32;;;;;;;4.70;3.67;;;17.70;95.30;;;;;;5094852;28;20439;-60
2022/08/02 06:20:01;;;;;;;10.23;3.60;;;17.80;94.90;;;;;;5094655;28;20512;-61
2022/08/02 06:22:30;;;;;;;5.97;3.93;;;17.80;94.60;;;;;;5083736;28;20439;-61
2022/08/02 06:25:01;;;;;;;6.67;3.47;;;17.80;94.40;;;;;;5075710;28;20439;-60
2022/08/02 06:27:30;;;;;;;10.87;3.70;;;17.80;94.30;;;;;;5076741;28;20436;-61
2022/08/02 06:29:57;;;;;;;3.63;3.00;;;17.80;94.10;;;;;;5075013;28;20482;-61
2022/08/02 06:32:27;;;;;;;6.57;3.80;;;18.00;93.70;;;;;;5075028;28;20545;-65
2022/08/02 06:34:54;;;;;;;4.80;3.10;;;18.10;93.40;;;;;;5076125;28;20793;-63
2022/08/02 06:37:27;;;;;;;6.70;3.90;;;18.20;92.90;;;;;;5087923;28;20991;-62
2022/08/02 06:40:05;;;;;;;6.77;3.30;;;18.30;92.40;;;;;;5088109;28;20471;-61
2022/08/02 06:42:43;;;;;;;7.43;3.67;;;18.40;91.90;;;;;;5085800;28;20489;-65
2022/08/02 06:45:10;;;;;;;4.73;2.93;;;18.50;91.40;;;;;;5074500;28;20832;-64
2022/08/02 06:47:37;;;;;;;7.40;3.47;;;18.60;91.00;;;;;;5089409;28;20454;-63
2022/08/02 06:50:06;;;;;;;6.40;3.27;;;18.70;90.70;;;;;;5094627;28;20510;-63
2022/08/02 06:52:34;;;;;;;5.53;3.43;;;18.90;90.40;;;;;;5094339;28;20442;-63
2022/08/02 06:55:05;;;;;;;6.70;2.60;;;18.90;89.90;;;;;;5094473;28;20486;-60
2022/08/02 06:57:33;;;;;;;6.60;3.10;;;19.00;88.90;;;;;;5094452;28;20433;-63
2022/08/02 07:00:02;;;;;;;4.70;2.60;;;19.10;87.80;;;;;;5093885;28;20514;-64
2022/08/02 07:02:29;;;;;;;6.53;3.70;;;19.20;86.90;;;;;;5094067;28;20994;-64
2022/08/02 07:04:57;;;;;;;6.80;3.03;;;19.30;86.20;;;;;;5093820;28;20486;-64
2022/08/02 07:07:24;;;;;;;6.90;3.20;;;19.40;85.60;;;;;;5092957;28;20442;-63
2022/08/02 07:09:52;;;;;;;5.67;3.10;;;19.50;85.00;;;;;;5092944;28;20581;-63
2022/08/02 07:12:21;;;;;;;7.67;3.87;;;19.50;84.20;;;;;;5093403;28;20534;-63
2022/08/02 07:14:48;;;;;;;8.20;3.70;;;19.60;84.00;;;;;;5093703;28;20469;-62
2022/08/02 07:17:15;;;;;;;7.17;3.47;;;19.70;83.50;;;;;;5091670;28;20446;-65
2022/08/02 07:19:43;;;;;;;5.20;3.03;;;19.80;83.20;;;;;;5093618;28;20550;-64
2022/08/02 07:22:11;;;;;;;7.57;3.30;;;19.90;82.80;;;;;;5086942;28;20534;-64
2022/08/02 07:24:39;;;;;;;4.70;3.47;;;20.00;82.40;;;;;;5073589;28;20451;-64
2022/08/02 07:27:06;;;;;;;4.30;3.33;;;20.10;82.30;;;;;;5080019;28;20439;-63
2022/08/02 07:29:35;;;;;;;10.37;3.30;;;20.20;81.90;;;;;;5082815;28;20506;-64
2022/08/02 07:32:02;;;;;;;5.70;3.13;;;20.30;81.50;;;;;;5101002;28;20478;-65
2022/08/02 07:34:29;;;;;;;8.07;4.33;;;20.40;81.20;;;;;;5107664;28;20448;-65
2022/08/02 07:36:56;;;;;;;5.83;3.40;;;20.40;81.00;;;;;;5103454;28;20450;-65
2022/08/02 07:39:24;;;;;;;5.13;3.30;;;20.50;80.90;;;;;;5105539;28;20482;-64
2022/08/02 07:41:51;;;;;;;3.83;3.07;;;20.60;80.90;;;;;;5102833;28;21037;-63
2022/08/02 07:44:19;;;;;;;7.03;3.40;;;20.60;80.70;;;;;;5099700;28;20812;-64
2022/08/02 07:46:47;;;;;;;5.33;3.47;;;20.70;80.60;;;;;;5104738;28;20464;-62
2022/08/02 07:49:17;;;;;;;6.03;3.30;;;20.80;80.50;;;;;;5110678;28;20549;-60
2022/08/02 07:51:45;;;;;;;7.00;4.57;;;20.90;80.40;;;;;;5100006;28;20443;-62
2022/08/02 07:54:12;;;;;;;5.10;3.33;;;20.90;80.20;;;;;;5094045;28;20875;-62
2022/08/02 07:56:39;;;;;;;8.30;3.90;;;21.00;80.60;;;;;;5093854;28;20475;-60
2022/08/02 07:59:09;;;;;;;5.13;3.77;;;21.10;80.40;;;;;;5093390;28;20469;-60
2022/08/02 08:01:36;;;;;;;4.50;2.90;;;21.30;80.20;;;;;;5094061;28;20870;-61
2022/08/02 08:04:05;;;;;;;6.40;2.90;;;21.40;79.60;;;;;;5094327;28;20439;-61
2022/08/02 08:06:32;;;;;;;4.63;2.90;;;21.30;79.60;;;;;;5092881;28;20454;-61
2022/08/02 08:08:59;;;;;;;5.83;3.87;;;21.40;79.80;;;;;;5091987;28;21040;-61
2022/08/02 08:11:27;;;;;;;5.23;4.00;;;21.40;79.80;;;;;;5092765;28;20448;-62
2022/08/02 08:13:54;;;;;;;5.30;3.57;;;21.50;79.90;;;;;;5092851;28;20450;-61
2022/08/02 08:16:21;;;;;;;5.40;3.57;;;21.50;79.80;;;;;;5092750;28;20454;-60
2022/08/02 08:18:48;;;;;;;4.27;3.67;;;21.60;79.90;;;;;;5092747;28;20468;-61
2022/08/02 08:21:17;;;;;;;7.23;3.10;;;21.70;79.40;;;;;;5093048;28;20445;-62
2022/08/02 08:23:44;;;;;;;7.40;3.17;;;21.80;79.20;;;;;;5092610;28;20518;-61
2022/08/02 08:26:12;;;;;;;6.70;3.50;;;21.90;79.00;;;;;;5092839;28;20451;-62
2022/08/02 08:28:39;;;;;;;6.47;3.20;;;22.10;78.50;;;;;;5092648;28;20552;-61
2022/08/02 08:31:06;;;;;;;4.50;3.20;;;22.30;77.70;;;;;;5093168;28;20566;-62
2022/08/02 08:33:34;;;;;;;7.30;3.30;;;22.40;76.90;;;;;;5092912;28;20787;-60
2022/08/02 08:36:01;;;;;;;4.70;3.20;;;22.40;76.40;;;;;;5092279;28;20473;-61
2022/08/02 08:38:29;;;;;;;6.30;3.43;;;22.40;76.20;;;;;;5092967;28;20483;-63
2022/08/02 08:40:57;;;;;;;6.53;3.57;;;22.50;75.70;;;;;;5092595;28;20865;-62
2022/08/02 08:43:25;;;;;;;5.63;3.40;;;22.70;74.70;;;;;;5092315;28;20544;-61
2022/08/02 08:45:52;;;;;;;5.33;3.43;;;22.80;74.10;;;;;;5092443;28;20450;-62
2022/08/02 08:48:21;;;;;;;4.23;3.13;;;22.90;73.60;;;;;;5092862;28;20444;-62
2022/08/02 08:50:55;;;;;;;8.10;3.37;;;23.20;73.00;;;;;;5092671;28;20503;-61
2022/08/02 08:53:25;;;;;;;5.50;3.53;;;23.40;72.20;;;;;;5092743;28;20518;-62
2022/08/02 08:55:57;;;;;;;4.40;3.40;;;23.70;70.90;;;;;;5095059;28;20510;-63
2022/08/02 08:58:24;;;;;;;5.07;3.20;;;24.00;69.70;;;;;;5096331;28;20514;-62
2022/08/02 09:00:51;;;;;;;5.57;2.70;;;24.30;68.60;;;;;;5096321;28;20542;-60
2022/08/02 09:03:18;;;;;;;3.60;2.13;;;24.50;66.70;;;;;;5096419;28;20472;-62
2022/08/02 09:05:46;;;;;;;4.00;2.10;;;24.90;65.10;;;;;;5096451;28;20536;-62
2022/08/02 09:08:14;;;;;;;3.93;2.60;;;25.10;63.70;;;;;;5095687;28;20455;-60
2022/08/02 09:10:43;;;;;;;3.73;2.80;;;25.20;62.60;;;;;;5096130;28;20462;-62
2022/08/02 09:13:16;;;;;;;6.10;3.20;;;25.40;61.40;;;;;;5096553;28;20449;-62
2022/08/02 09:15:45;;;;;;;3.77;2.57;;;25.70;59.70;;;;;;5096509;28;20467;-61
2022/08/02 09:18:13;;;;;;;4.20;3.40;;;25.70;59.00;;;;;;5095759;28;20542;-63
2022/08/02 09:20:56;;;;;;;3.80;2.80;;;25.80;58.40;;;;;;5096011;28;20941;-62
2022/08/02 09:23:25;;;;;;;4.83;2.80;;;25.80;57.70;;;;;;5095834;28;20458;-62
2022/08/02 09:25:58;;;;;;;3.17;2.53;;;25.70;57.90;;;;;;5096172;28;20447;-62
2022/08/02 09:28:34;;;;;;;4.03;2.83;;;25.60;57.20;;;;;;5095994;28;20810;-60
2022/08/02 09:31:06;;;;;;;4.97;2.57;;;25.70;56.60;;;;;;5095864;28;20825;-63
2022/08/02 09:33:34;;;;;;;5.90;2.77;;;25.70;56.30;;;;;;5096090;28;20465;-62
2022/08/02 09:36:03;;;;;;;6.67;2.63;;;25.70;55.60;;;;;;5095785;28;20553;-61
2022/08/02 09:38:31;;;;;;;4.03;2.60;;;25.70;54.60;;;;;;5096080;28;20844;-63
2022/08/02 09:40:59;;;;;;;3.10;2.57;;;25.70;54.40;;;;;;5095978;28;20942;-62
2022/08/02 09:43:39;;;;;;;4.90;2.90;;;25.70;54.00;;;;;;5095835;28;20444;-62
2022/08/02 09:46:14;;;;;;;2.33;2.03;;;25.70;53.30;;;;;;5095894;28;20465;-62
2022/08/02 09:48:49;;;;;;;4.23;2.40;;;25.50;53.40;;;;;;5095558;28;20809;-63
2022/08/02 09:51:19;;;;;;;4.27;2.90;;;25.50;53.60;;;;;;5095750;28;20474;-62
2022/08/02 09:53:48;;;;;;;3.00;2.60;;;25.60;53.40;;;;;;5095489;28;20450;-61
2022/08/02 09:56:18;;;;;;;4.50;2.43;;;25.60;53.20;;;;;;5095359;28;20533;-62
2022/08/02 09:58:47;;;;;;;5.33;2.87;;;25.70;53.00;;;;;;5095567;28;20528;-62
2022/08/02 10:01:14;;;;;;;3.07;2.50;;;25.80;52.30;;;;;;5095659;28;20493;-62
2022/08/02 10:03:55;;;;;;;4.33;3.00;;;26.00;51.80;;;;;;5095567;28;20553;-63
2022/08/02 10:06:23;;;;;;;2.57;2.27;;;26.20;51.20;;;;;;5095274;28;20807;-63
2022/08/02 10:08:52;;;;;;;5.27;2.93;;;26.40;50.80;;;;;;5095209;28;20580;-62
2022/08/02 10:11:20;;;;;;;4.63;2.13;;;26.50;50.50;;;;;;5095882;28;20480;-62
2022/08/02 10:13:49;;;;;;;3.30;3.03;;;26.50;50.10;;;;;;5097695;28;20449;-62
2022/08/02 10:16:22;;;;;;;6.47;3.10;;;26.50;49.90;;;;;;5096044;28;20541;-63
2022/08/02 10:18:49;;;;;;;3.00;2.70;;;26.40;49.80;;;;;;5095597;28;20518;-63
2022/08/02 10:21:22;;;;;;;3.47;2.67;;;26.30;50.00;;;;;;5095161;28;20528;-63
2022/08/02 10:23:50;;;;;;;4.03;2.43;;;26.30;50.30;;;;;;5096182;28;20517;-63
2022/08/02 10:26:19;;;;;;;6.90;2.77;;;26.40;50.10;;;;;;5096130;28;20509;-61
2022/08/02 10:28:49;;;;;;;6.63;2.43;;;26.50;49.70;;;;;;5094807;28;20528;-61
2022/08/02 10:31:23;;;;;;;2.57;2.23;;;26.60;49.10;;;;;;5096141;28;20937;-62
2022/08/02 10:33:52;;;;;;;3.27;2.33;;;26.70;48.40;;;;;;5099105;28;20430;-62
2022/08/02 10:36:22;;;;;;;3.70;2.53;;;26.70;48.00;;;;;;5100439;28;20450;-62
2022/08/02 10:38:50;;;;;;;6.10;2.80;;;26.70;48.10;;;;;;5099254;28;20868;-62
2022/08/02 10:41:41;;;;;;;2.80;2.30;;;26.70;48.10;;;;;;5097516;28;20464;-62
2022/08/02 10:44:19;;;;;;;2.93;2.10;;;26.80;47.70;;;;;;5097461;28;20465;-61
2022/08/02 10:46:46;;;;;;;3.43;2.40;;;26.70;47.40;;;;;;5094941;28;20436;-62
2022/08/02 10:49:16;;;;;;;4.00;2.80;;;26.70;46.90;;;;;;5094816;28;20502;-61
2022/08/02 10:52:06;;;;;;;3.47;2.93;;;26.80;46.90;;;;;;5094229;28;20482;-62
2022/08/02 10:54:36;;;;;;;4.03;3.10;;;26.90;46.50;;;;;;5094443;28;20832;-61
2022/08/02 10:57:14;;;;;;;2.63;2.43;;;27.10;46.40;;;;;;5103157;28;20460;-62
2022/08/02 10:59:43;;;;;;;3.17;2.97;;;27.20;47.00;;;;;;5094872;28;20470;-62
2022/08/02 11:02:11;;;;;;;4.00;2.53;;;27.40;46.10;;;;;;5095004;28;20528;-62
2022/08/02 11:05:07;;;;;;;4.03;2.77;;;27.50;46.10;;;;;;5094614;28;20534;-63
2022/08/02 11:07:37;;;;;;;3.93;2.90;;;27.80;46.00;;;;;;5094407;28;20483;-63
2022/08/02 11:10:31;;;;;;;4.10;2.70;;;28.10;45.50;;;;;;5093938;28;20564;-62
2022/08/02 11:13:04;;;;;;;3.00;2.80;;;28.10;45.00;;;;;;5094127;28;21028;-63
2022/08/02 11:15:49;;;;;;;3.37;3.07;;;28.00;45.40;;;;;;5094747;28;20457;-62
2022/08/02 11:18:17;;;;;;;3.10;2.87;;;27.90;45.40;;;;;;5093766;28;20452;-63
2022/08/02 11:20:44;;;;;;;3.80;3.10;;;27.70;45.30;;;;;;5093975;28;20489;-61
2022/08/02 11:23:34;;;;;;;2.67;2.43;;;27.50;45.40;;;;;;5094181;28;20452;-62
2022/08/02 11:26:04;;;;;;;3.33;2.57;;;27.40;45.70;;;;;;5093505;28;20481;-62
2022/08/02 11:28:32;;;;;;;2.97;2.40;;;27.30;45.80;;;;;;5094270;28;20835;-62
2022/08/02 11:31:01;;;;;;;4.03;2.30;;;27.40;45.70;;;;;;5093724;28;20492;-61
2022/08/02 11:33:32;;;;;;;3.20;2.60;;;27.50;45.30;;;;;;5094045;28;20494;-64
2022/08/02 11:36:05;;;;;;;2.70;1.83;;;27.60;44.80;;;;;;5093524;28;20453;-62
2022/08/02 11:38:33;;;;;;;4.57;2.50;;;27.70;44.50;;;;;;5091154;28;21018;-62
2022/08/02 11:41:02;;;;;;;2.93;2.50;;;27.80;44.20;;;;;;5093110;28;20504;-62
2022/08/02 11:43:30;;;;;;;3.40;2.30;;;27.90;43.90;;;;;;5093305;28;20463;-61
2022/08/02 11:45:58;;;;;;;4.57;2.30;;;28.10;43.80;;;;;;5092544;28;20975;-61
2022/08/02 11:48:37;;;;;;;3.20;2.60;;;28.10;43.20;;;;;;5093845;28;20530;-63
2022/08/02 11:51:06;;;;;;;2.70;2.20;;;28.00;42.90;;;;;;5093570;28;20548;-62
2022/08/02 11:53:49;;;;;;;2.03;1.93;;;27.80;42.90;;;;;;5090238;28;20453;-60
2022/08/02 11:56:19;;;;;;;2.20;2.00;;;27.90;42.90;;;;;;5091479;28;20466;-64
2022/08/02 11:59:01;;;;;;;1.60;1.50;;;28.30;42.50;;;;;;5090299;28;20851;-61
2022/08/02 12:01:30;;;;;;;2.00;1.67;;;28.80;41.00;;;;;;5080791;28;20435;-62
2022/08/02 12:03:59;;;;;;;1.93;1.73;;;29.40;39.90;;;;;;5073271;28;20454;-61
2022/08/02 12:06:28;;;;;;;4.37;1.87;;;29.90;38.80;;;;;;5093308;28;20450;-61
2022/08/02 12:09:02;;;;;;;1.80;1.60;;;30.20;38.20;;;;;;5093032;28;20917;-63
2022/08/02 12:11:30;;;;;;;3.10;2.37;;;30.50;37.80;;;;;;5092793;28;20572;-64
2022/08/02 12:13:57;;;;;;;2.00;1.80;;;30.80;37.50;;;;;;5092775;28;20649;-64
2022/08/02 12:19:21;;;;;;;2.43;1.90;;;31.20;37.00;;;;;;5073843;28;20459;-64
2022/08/02 12:21:49;;;;;;;2.03;1.93;;;31.30;36.60;;;;;;5073181;28;20433;-62
2022/08/02 12:24:31;;;;;;;1.80;1.70;;;31.10;36.70;;;;;;5082836;28;20534;-63
2022/08/02 12:26:59;;;;;;;1.90;1.70;;;30.80;37.10;;;;;;5091036;28;20446;-62
2022/08/02 12:29:30;;;;;;;2.70;1.77;;;30.60;37.50;;;;;;5092555;28;20459;-63
2022/08/02 12:31:58;;;;;;;2.10;1.90;;;30.30;38.00;;;;;;5097360;28;20518;-63
2022/08/02 12:34:28;;;;;;;3.43;2.03;;;30.10;38.50;;;;;;5097314;28;20442;-63
2022/08/02 12:37:03;;;;;;;4.17;2.67;;;30.00;38.80;;;;;;5097761;28;20433;-63
2022/08/02 12:39:39;;;;;;;2.67;2.20;;;29.80;39.20;;;;;;5099660;28;20862;-64
2022/08/02 12:42:08;;;;;;;2.00;1.80;;;29.80;39.40;;;;;;5109996;28;20451;-62
2022/08/02 12:44:37;;;;;;;2.30;1.80;;;29.60;39.60;;;;;;5109018;28;20499;-62
2022/08/02 12:47:09;;;;;;;2.10;1.90;;;29.40;39.90;;;;;;5109993;28;20460;-61
2022/08/02 12:49:38;;;;;;;4.10;2.60;;;29.30;40.30;;;;;;5105578;28;20498;-63
2022/08/02 12:52:19;;;;;;;2.43;2.23;;;29.20;40.60;;;;;;5104403;28;20477;-63
2022/08/02 12:54:48;;;;;;;2.30;2.10;;;29.20;40.90;;;;;;5105517;28;20435;-62
2022/08/02 12:57:17;;;;;;;1.83;1.73;;;29.20;41.10;;;;;;5103772;28;20483;-64
2022/08/02 12:59:50;;;;;;;2.83;2.10;;;29.30;41.10;;;;;;5104071;28;20475;-63
2022/08/02 13:02:18;;;;;;;3.03;2.13;;;29.30;41.10;;;;;;5105033;28;20424;-63
2022/08/02 13:04:47;;;;;;;2.30;2.10;;;29.20;41.00;;;;;;5103437;28;20452;-64
2022/08/02 13:07:14;;;;;;;2.10;1.90;;;29.20;41.20;;;;;;5099021;28;20479;-63
2022/08/02 13:09:44;;;;;;;2.50;1.70;;;29.20;41.20;;;;;;5097382;28;20512;-63